High gust

Not for real navigation. The accuracy of this data is not assured See disclaimer for more information



ICAO NAME COUNTRY WIND Kt GUST Kt VIS m TEMP/DEW C BARO METAR
KMWN Mount Washington NH United States 64 74 32767 -16/-21 29.92 KMWN 190555Z 32064G74KT 130SM BKN/// SCT050 SCT100 BKN150 M16/M21 RMK ACSL NOOP E-S TPS LWR BKN050 4
ENSE 51 62 9999 8/5 29.56 ENSE 190720Z AUTO 16051G62KT 9999NDV FEW016/// SCT025/// BKN034/// 08/05 Q1001 W///S7
ENOA Oseberg Norway 44 60 8000 7/4 29.56 ENOA 190720Z 14044G60KT 8000 -RA OVC015 07/04 Q1001 W///S6
KC99 28 58 1600 -7/-8 29.88 KC99 190700Z AUTO 30028G58KT 1 0.75SM OVC004 M07/M08 A2988 RMK AO2
PAKH 38 50 9600 -9/-13 29.35 PAKH 190656Z AUTO 29038G50KT 6SM -SN OVC021 M09/M13 A2935 RMK AO2 PK WND 30050/0647 PRESRR SLP940 P0

Show more